createdAt,value
2018-12-07T00:00:07.863Z,2.00
2018-12-07T00:01:07.850Z,2.00
2018-12-07T00:02:07.838Z,2.00
2018-12-07T00:03:07.824Z,2.10
2018-12-07T00:04:07.861Z,2.90
2018-12-07T00:05:07.845Z,3.20
2018-12-07T00:06:07.818Z,2.60
2018-12-07T00:07:07.774Z,3.10
2018-12-07T00:08:07.763Z,2.90
2018-12-07T00:09:07.749Z,3.00
2018-12-07T00:10:07.791Z,3.00
2018-12-07T00:11:07.735Z,3.40
2018-12-07T00:12:07.748Z,3.00
2018-12-07T00:13:07.708Z,3.40
2018-12-07T00:14:07.688Z,3.80
2018-12-07T00:15:07.733Z,4.00
2018-12-07T00:16:07.695Z,4.30
2018-12-07T00:17:07.658Z,4.30
2018-12-07T00:18:07.639Z,4.40
2018-12-07T00:19:07.627Z,4.60
2018-12-07T00:20:07.647Z,4.50
2018-12-07T00:21:07.602Z,4.50
2018-12-07T00:22:07.622Z,4.40
2018-12-07T00:23:07.577Z,4.30
2018-12-07T00:24:07.569Z,4.80
2018-12-07T00:25:07.550Z,5.10
2018-12-07T00:26:07.568Z,5.30
2018-12-07T00:27:07.536Z,5.50
2018-12-07T00:28:07.517Z,5.50
2018-12-07T00:29:07.531Z,6.10
2018-12-07T00:30:07.490Z,5.10
2018-12-07T00:31:07.488Z,5.80
2018-12-07T00:32:07.472Z,5.90
2018-12-07T00:33:07.455Z,5.90
2018-12-07T00:34:07.487Z,5.70
2018-12-07T00:35:07.440Z,5.90
2018-12-07T00:36:07.419Z,6.20
2018-12-07T00:37:07.413Z,5.30
2018-12-07T00:38:07.395Z,5.60
2018-12-07T00:39:07.437Z,5.50
2018-12-07T00:40:07.368Z,5.70
2018-12-07T00:41:07.384Z,5.70
2018-12-07T00:42:07.343Z,5.20
2018-12-07T00:43:07.333Z,5.50
2018-12-07T00:44:07.343Z,5.00
2018-12-07T00:45:07.312Z,6.30
2018-12-07T00:46:07.336Z,5.70
2018-12-07T00:47:07.347Z,5.30
2018-12-07T00:48:07.271Z,6.20
2018-12-07T00:49:07.262Z,7.20
2018-12-07T00:50:07.245Z,6.40
2018-12-07T00:51:07.280Z,6.10
2018-12-07T00:52:07.240Z,7.10
2018-12-07T00:53:07.210Z,7.80
2018-12-07T00:54:07.202Z,8.00
2018-12-07T00:55:07.210Z,7.50
2018-12-07T00:56:07.177Z,7.70
2018-12-07T00:57:07.187Z,7.70
2018-12-07T00:58:07.151Z,7.90
2018-12-07T00:59:07.134Z,8.30
2018-12-07T01:00:07.124Z,6.80
2018-12-07T01:01:07.145Z,6.40
2018-12-07T01:02:07.115Z,6.40
2018-12-07T01:03:07.088Z,6.60
2018-12-07T01:04:07.096Z,6.80
2018-12-07T01:05:07.071Z,5.20
2018-12-07T01:06:07.081Z,5.60
2018-12-07T01:07:07.089Z,5.40
2018-12-07T01:08:07.029Z,6.10
2018-12-07T01:09:07.033Z,6.60
2018-12-07T01:10:07.025Z,6.30
2018-12-07T01:11:06.991Z,6.20
2018-12-07T01:12:07.006Z,6.80
2018-12-07T01:13:06.977Z,6.30
2018-12-07T01:14:06.957Z,5.90
2018-12-07T01:15:06.963Z,5.70
2018-12-07T01:16:06.940Z,5.50
2018-12-07T01:17:06.942Z,5.80
2018-12-07T01:18:06.908Z,5.70
2018-12-07T01:19:06.898Z,5.60
2018-12-07T01:20:06.888Z,5.90
2018-12-07T01:21:06.889Z,6.40
2018-12-07T01:22:06.899Z,5.90
2018-12-07T01:23:06.849Z,5.30
2018-12-07T01:24:06.843Z,5.20
2018-12-07T01:25:06.822Z,5.20
2018-12-07T01:26:06.831Z,5.60
2018-12-07T01:27:06.823Z,5.00
2018-12-07T01:28:06.785Z,4.50
2018-12-07T01:29:06.771Z,4.80
2018-12-07T01:30:06.755Z,4.10
2018-12-07T01:31:06.745Z,4.50
2018-12-07T01:32:06.767Z,3.90
2018-12-07T01:33:06.727Z,3.30
2018-12-07T01:34:06.723Z,3.00
2018-12-07T01:35:06.798Z,3.20
2018-12-07T01:36:06.731Z,3.00
2018-12-07T01:37:06.692Z,3.00
2018-12-07T01:38:06.656Z,3.10
2018-12-07T01:39:06.661Z,2.50
2018-12-07T01:40:06.651Z,3.00
2018-12-07T01:41:06.641Z,3.00
2018-12-07T01:42:06.615Z,2.90
2018-12-07T01:43:06.637Z,2.90
2018-12-07T01:44:06.617Z,2.80
2018-12-07T01:45:06.576Z,2.80
2018-12-07T01:46:06.578Z,3.10
2018-12-07T01:47:06.578Z,2.70
2018-12-07T01:48:06.539Z,2.60
2018-12-07T01:49:06.533Z,2.40
2018-12-07T01:50:06.512Z,2.20
2018-12-07T01:51:06.497Z,2.00
2018-12-07T01:52:06.514Z,2.00
2018-12-07T01:53:06.481Z,2.40
2018-12-07T01:54:06.469Z,2.10
2018-12-07T01:55:06.451Z,2.10
2018-12-07T01:56:06.459Z,1.80
2018-12-07T01:57:06.463Z,1.60
2018-12-07T01:58:06.414Z,1.90
2018-12-07T01:59:06.398Z,1.60
2018-12-07T02:00:06.390Z,1.40
2018-12-07T02:01:06.374Z,1.40
2018-12-07T02:02:06.400Z,1.40
2018-12-07T02:03:06.365Z,1.50
2018-12-07T02:04:06.377Z,1.90
2018-12-07T02:05:06.339Z,1.60
2018-12-07T02:06:06.314Z,1.50
2018-12-07T02:07:06.328Z,1.70
2018-12-07T02:08:06.287Z,1.60
2018-12-07T02:09:06.318Z,1.60
2018-12-07T02:10:06.309Z,1.60
2018-12-07T02:11:06.251Z,1.60
2018-12-07T02:12:06.245Z,1.50
2018-12-07T02:13:06.227Z,1.70
2018-12-07T02:14:06.215Z,1.60
2018-12-07T02:15:06.235Z,1.70
2018-12-07T02:16:06.195Z,1.70
2018-12-07T02:17:06.181Z,1.50
2018-12-07T02:18:06.188Z,1.50
2018-12-07T02:19:06.201Z,1.40
2018-12-07T02:20:06.143Z,1.70
2018-12-07T02:21:06.137Z,1.60
2018-12-07T02:22:06.121Z,1.60
2018-12-07T02:23:06.106Z,1.30
2018-12-07T02:24:06.135Z,1.50
2018-12-07T02:25:06.080Z,1.20
2018-12-07T02:26:06.089Z,1.40
2018-12-07T02:27:06.069Z,1.20
2018-12-07T02:28:06.061Z,1.20
2018-12-07T02:29:06.081Z,1.30
2018-12-07T02:30:06.029Z,1.40
2018-12-07T02:31:06.013Z,0.90
2018-12-07T02:32:06.021Z,1.00
2018-12-07T02:33:06.020Z,1.10
2018-12-07T02:34:05.968Z,1.00
2018-12-07T02:35:05.961Z,1.00
2018-12-07T02:36:05.962Z,1.10
2018-12-07T02:37:05.993Z,0.80
2018-12-07T02:38:05.927Z,1.20
2018-12-07T02:39:05.911Z,1.00
2018-12-07T02:40:05.899Z,1.00
2018-12-07T02:41:05.885Z,1.00
2018-12-07T02:42:05.912Z,1.00
2018-12-07T02:43:05.865Z,1.00
2018-12-07T02:44:05.849Z,1.00
2018-12-07T02:45:05.837Z,1.00
2018-12-07T02:46:05.826Z,1.10
2018-12-07T02:47:05.834Z,1.10
2018-12-07T02:48:05.822Z,1.10
2018-12-07T02:49:05.788Z,1.10
2018-12-07T02:50:05.776Z,1.00
2018-12-07T02:51:05.782Z,1.00
2018-12-07T02:52:05.775Z,0.90
2018-12-07T02:53:05.744Z,1.00
2018-12-07T02:54:05.745Z,1.10
2018-12-07T02:55:05.719Z,0.90
2018-12-07T02:56:05.719Z,0.90
2018-12-07T02:57:05.713Z,0.90
2018-12-07T02:58:05.682Z,1.00
2018-12-07T02:59:05.673Z,1.20
2018-12-07T03:00:05.679Z,1.00
2018-12-07T03:01:05.645Z,0.90
2018-12-07T03:02:05.683Z,0.90
2018-12-07T03:03:05.619Z,0.70
2018-12-07T03:04:05.624Z,0.90
2018-12-07T03:05:05.628Z,1.00
2018-12-07T03:06:05.577Z,0.80
2018-12-07T03:07:05.657Z,0.90
2018-12-07T03:08:05.579Z,0.90
2018-12-07T03:09:05.541Z,0.70
2018-12-07T03:10:05.546Z,1.10
2018-12-07T03:11:05.540Z,0.80
2018-12-07T03:12:05.568Z,0.80
2018-12-07T03:13:05.495Z,0.70
2018-12-07T03:14:05.478Z,0.80
2018-12-07T03:15:05.470Z,0.80
2018-12-07T03:16:05.476Z,0.80
2018-12-07T03:17:05.479Z,0.70
2018-12-07T03:18:05.430Z,0.80
2018-12-07T03:19:05.423Z,0.80
2018-12-07T03:20:05.418Z,0.80
2018-12-07T03:21:05.397Z,0.80
2018-12-07T03:22:05.415Z,0.70
2018-12-07T03:23:05.380Z,0.90
2018-12-07T03:24:05.382Z,0.90
2018-12-07T03:25:05.342Z,0.70
2018-12-07T03:26:05.337Z,0.70
2018-12-07T03:27:05.332Z,1.00
2018-12-07T03:28:05.322Z,0.80
2018-12-07T03:29:05.344Z,0.80
2018-12-07T03:30:05.294Z,0.90
2018-12-07T03:31:05.321Z,0.90
2018-12-07T03:32:05.263Z,0.90
2018-12-07T03:33:05.262Z,1.00
2018-12-07T03:34:05.261Z,1.20
2018-12-07T03:35:05.223Z,1.10
2018-12-07T03:36:05.243Z,1.00
2018-12-07T03:37:05.198Z,1.20
2018-12-07T03:38:05.191Z,1.30
2018-12-07T03:39:05.183Z,1.20
2018-12-07T03:40:05.169Z,1.20
2018-12-07T03:41:05.199Z,1.20
2018-12-07T03:42:05.140Z,1.20
2018-12-07T03:43:05.136Z,1.40
2018-12-07T03:44:05.125Z,1.20
2018-12-07T03:45:05.104Z,1.40
2018-12-07T03:46:05.139Z,1.30
2018-12-07T03:47:05.082Z,1.60
2018-12-07T03:48:05.072Z,1.20
2018-12-07T03:49:05.062Z,1.40
2018-12-07T03:50:05.039Z,1.30
2018-12-07T03:51:05.073Z,1.30
2018-12-07T03:52:05.046Z,1.30
2018-12-07T03:53:05.013Z,1.40
2018-12-07T03:54:05.016Z,1.20
2018-12-07T03:55:04.978Z,1.50
2018-12-07T03:56:04.989Z,1.40
2018-12-07T03:57:04.989Z,1.40
2018-12-07T03:58:04.951Z,1.40
2018-12-07T03:59:04.931Z,1.60
2018-12-07T04:00:04.919Z,1.20
2018-12-07T04:01:04.905Z,1.60
2018-12-07T04:02:04.930Z,1.50
2018-12-07T04:03:04.891Z,1.60
2018-12-07T04:04:04.884Z,1.60
2018-12-07T04:05:04.858Z,1.60
2018-12-07T04:06:04.847Z,1.60
2018-12-07T04:07:04.892Z,1.90
2018-12-07T04:08:04.827Z,1.70
2018-12-07T04:09:04.816Z,2.00
2018-12-07T04:10:04.808Z,1.70
2018-12-07T04:11:04.784Z,1.60
2018-12-07T04:12:04.808Z,1.90
2018-12-07T04:13:04.761Z,1.70
2018-12-07T04:14:04.748Z,1.60
2018-12-07T04:15:04.747Z,1.70
2018-12-07T04:16:04.727Z,1.50
2018-12-07T04:17:04.757Z,1.90
2018-12-07T04:18:04.707Z,1.70
2018-12-07T04:19:04.688Z,1.60
2018-12-07T04:20:04.679Z,1.80
2018-12-07T04:21:04.673Z,1.70
2018-12-07T04:22:04.687Z,1.80
2018-12-07T04:23:04.672Z,1.70
2018-12-07T04:24:04.630Z,1.80
2018-12-07T04:25:04.620Z,1.70
2018-12-07T04:26:04.635Z,1.80
2018-12-07T04:27:04.636Z,2.00
2018-12-07T04:28:04.590Z,1.80
2018-12-07T04:29:04.580Z,2.00
2018-12-07T04:30:04.601Z,2.00
2018-12-07T04:31:04.551Z,1.80
2018-12-07T04:32:04.544Z,1.60
2018-12-07T04:33:04.567Z,2.00
2018-12-07T04:34:04.523Z,1.90
2018-12-07T04:35:04.507Z,2.40
2018-12-07T04:36:07.582Z,2.20
2018-12-07T04:37:04.482Z,2.50
2018-12-07T04:38:04.474Z,2.30
2018-12-07T04:39:04.458Z,2.20
2018-12-07T04:40:04.454Z,2.40
2018-12-07T04:41:04.481Z,2.80
2018-12-07T04:42:04.424Z,2.60
2018-12-07T04:43:04.419Z,2.50
2018-12-07T04:44:04.400Z,2.80
2018-12-07T04:45:04.395Z,2.80
2018-12-07T04:46:04.403Z,2.90
2018-12-07T04:47:04.367Z,3.20
2018-12-07T04:48:04.355Z,3.50
2018-12-07T04:49:04.369Z,3.30
2018-12-07T04:50:04.333Z,3.00
2018-12-07T04:51:04.324Z,3.40
2018-12-07T04:52:04.307Z,3.20
2018-12-07T04:53:04.298Z,3.30
2018-12-07T04:54:04.311Z,3.60
2018-12-07T04:55:04.303Z,3.50
2018-12-07T04:56:04.259Z,3.40
2018-12-07T04:57:04.256Z,3.20
2018-12-07T04:58:04.233Z,3.20
2018-12-07T04:59:04.223Z,4.00
2018-12-07T05:00:04.242Z,3.70
2018-12-07T05:01:04.237Z,3.80
2018-12-07T05:02:04.182Z,4.10
2018-12-07T05:03:04.219Z,4.20
2018-12-07T05:04:04.162Z,3.60
2018-12-07T05:05:04.161Z,4.00
2018-12-07T05:06:04.173Z,4.30
2018-12-07T05:07:04.127Z,4.20
2018-12-07T05:08:04.124Z,4.50
2018-12-07T05:09:04.103Z,4.40
2018-12-07T05:10:04.118Z,4.80
2018-12-07T05:11:04.083Z,4.40
2018-12-07T05:12:04.065Z,4.70
2018-12-07T05:13:04.053Z,4.90
2018-12-07T05:14:04.041Z,5.10
2018-12-07T05:15:04.058Z,5.20
2018-12-07T05:16:04.023Z,5.70
2018-12-07T05:17:04.047Z,5.10
2018-12-07T05:18:03.995Z,5.70
2018-12-07T05:19:03.986Z,5.50
2018-12-07T05:20:03.976Z,6.10
2018-12-07T05:21:03.969Z,6.50
2018-12-07T05:22:03.982Z,6.00
2018-12-07T05:23:03.935Z,6.90
2018-12-07T05:24:03.928Z,7.60
2018-12-07T05:25:03.910Z,6.90
2018-12-07T05:26:03.904Z,6.90
2018-12-07T05:27:03.925Z,7.00
2018-12-07T05:28:03.890Z,7.50
2018-12-07T05:29:03.869Z,8.10
2018-12-07T05:30:03.854Z,7.30
2018-12-07T05:31:03.852Z,7.40
2018-12-07T05:32:03.857Z,7.90
2018-12-07T05:33:03.817Z,8.00
2018-12-07T05:34:03.807Z,8.00
2018-12-07T05:35:03.798Z,7.80
2018-12-07T05:36:03.809Z,7.80
2018-12-07T05:37:03.778Z,8.20
2018-12-07T05:38:03.759Z,7.60
2018-12-07T05:39:03.778Z,8.70
2018-12-07T05:40:03.732Z,8.00
2018-12-07T05:41:03.721Z,8.20
2018-12-07T05:42:03.741Z,8.10
2018-12-07T05:43:03.702Z,9.00
2018-12-07T05:44:03.718Z,8.70
2018-12-07T05:45:03.677Z,8.30
2018-12-07T05:46:03.660Z,9.30
2018-12-07T05:47:03.656Z,9.10
2018-12-07T05:48:03.649Z,9.00
2018-12-07T05:49:03.663Z,9.70
2018-12-07T05:50:03.615Z,10.20
2018-12-07T05:51:03.602Z,9.70
2018-12-07T05:52:03.599Z,10.30
2018-12-07T05:53:03.613Z,10.30
2018-12-07T05:54:03.612Z,10.50
2018-12-07T05:55:03.581Z,10.30
2018-12-07T05:56:03.579Z,9.60
2018-12-07T05:57:03.540Z,10.40
2018-12-07T05:58:03.525Z,9.90
2018-12-07T05:59:03.524Z,10.40
2018-12-07T06:00:03.500Z,10.70
2018-12-07T06:01:03.536Z,11.10
2018-12-07T06:02:03.477Z,10.30
2018-12-07T06:03:03.465Z,11.10
2018-12-07T06:04:03.450Z,11.40
2018-12-07T06:05:03.440Z,12.10
2018-12-07T06:06:03.472Z,12.30
2018-12-07T06:07:03.412Z,12.20
2018-12-07T06:08:03.410Z,13.60
2018-12-07T06:09:03.417Z,12.40
2018-12-07T06:10:03.385Z,12.90
2018-12-07T06:11:03.479Z,12.40
2018-12-07T06:12:03.355Z,13.50
2018-12-07T06:13:03.345Z,12.00
2018-12-07T06:14:03.357Z,12.40
2018-12-07T06:15:03.318Z,13.10
2018-12-07T06:16:03.304Z,13.30
2018-12-07T06:17:03.318Z,12.90
2018-12-07T06:18:03.282Z,12.00
2018-12-07T06:19:03.294Z,12.20
2018-12-07T06:20:03.256Z,12.60
2018-12-07T06:21:03.246Z,12.50
2018-12-07T06:22:03.232Z,13.80
2018-12-07T06:23:03.264Z,13.10
2018-12-07T06:24:03.209Z,13.70
2018-12-07T06:25:03.226Z,14.40
2018-12-07T06:26:03.194Z,14.00
2018-12-07T06:27:03.172Z,13.50
2018-12-07T06:28:03.174Z,13.80
2018-12-07T06:29:03.185Z,13.80
2018-12-07T06:30:03.159Z,13.40
2018-12-07T06:31:03.124Z,13.90
2018-12-07T06:32:03.126Z,13.80
2018-12-07T06:33:03.111Z,13.00
2018-12-07T06:34:03.127Z,13.40
2018-12-07T06:35:03.081Z,13.70
2018-12-07T06:36:03.077Z,14.00
2018-12-07T06:37:03.053Z,13.40
2018-12-07T06:38:03.051Z,15.10
2018-12-07T06:39:03.079Z,14.40
2018-12-07T06:40:03.026Z,13.70
2018-12-07T06:41:03.006Z,13.50
2018-12-07T06:42:03.003Z,13.30
2018-12-07T06:43:02.991Z,13.40
2018-12-07T06:44:03.004Z,11.90
2018-12-07T06:45:02.973Z,11.90
2018-12-07T06:46:02.968Z,11.80
2018-12-07T06:47:02.962Z,10.50
2018-12-07T06:48:02.942Z,10.20
2018-12-07T06:49:02.927Z,10.20
2018-12-07T06:50:02.911Z,9.40
2018-12-07T06:51:02.894Z,9.10
2018-12-07T06:52:02.911Z,9.20
2018-12-07T06:53:02.977Z,9.90
2018-12-07T06:54:02.869Z,9.10
2018-12-07T06:55:02.842Z,9.20
2018-12-07T06:56:02.830Z,9.20
2018-12-07T06:57:02.853Z,10.10
2018-12-07T06:58:02.807Z,9.50
2018-12-07T06:59:02.809Z,9.60
2018-12-07T07:00:02.788Z,9.00
2018-12-07T07:01:02.780Z,8.80
2018-12-07T07:02:02.866Z,8.50
2018-12-07T07:03:02.744Z,8.50
2018-12-07T07:04:02.738Z,8.30
2018-12-07T07:05:02.721Z,8.00
2018-12-07T07:06:02.711Z,7.20
2018-12-07T07:07:03.055Z,7.70
2018-12-07T07:08:02.707Z,7.20
2018-12-07T07:09:02.697Z,7.50
2018-12-07T07:10:02.665Z,7.30
2018-12-07T07:11:02.667Z,7.20
2018-12-07T07:12:02.683Z,6.70
2018-12-07T07:13:02.854Z,7.20
2018-12-07T07:14:02.652Z,7.00
2018-12-07T07:15:02.608Z,6.40
2018-12-07T07:16:02.605Z,6.60
2018-12-07T07:17:02.578Z,6.50
2018-12-07T07:18:02.570Z,6.60
2018-12-07T07:19:02.590Z,5.90
2018-12-07T07:20:02.549Z,6.40
2018-12-07T07:21:02.591Z,6.60
2018-12-07T07:22:02.520Z,6.20
2018-12-07T07:23:02.504Z,6.30
2018-12-07T07:24:02.506Z,6.90
2018-12-07T07:25:02.500Z,6.20
2018-12-07T07:26:02.493Z,6.20
2018-12-07T07:27:02.467Z,7.20
2018-12-07T07:28:02.463Z,6.10
2018-12-07T07:29:02.433Z,6.60
2018-12-07T07:30:02.428Z,6.60
2018-12-07T07:31:02.447Z,6.50
2018-12-07T07:32:02.396Z,7.50
2018-12-07T07:33:02.410Z,6.90
2018-12-07T07:34:02.376Z,6.20
2018-12-07T07:35:02.363Z,7.40
2018-12-07T07:36:02.345Z,6.80
2018-12-07T07:37:02.334Z,7.20
2018-12-07T07:38:02.349Z,6.20
2018-12-07T07:39:02.323Z,7.20
2018-12-07T07:40:02.302Z,6.90
2018-12-07T07:41:02.291Z,6.90
2018-12-07T07:42:02.321Z,6.80
2018-12-07T07:43:02.262Z,7.30
2018-12-07T07:44:02.260Z,7.50
2018-12-07T07:45:02.249Z,6.70
2018-12-07T07:46:02.244Z,7.30
2018-12-07T07:47:02.237Z,7.00
2018-12-07T07:48:02.243Z,7.20
2018-12-07T07:49:02.196Z,7.60
2018-12-07T07:50:02.176Z,7.10
2018-12-07T07:51:02.270Z,6.50
2018-12-07T07:52:02.156Z,7.30
2018-12-07T07:53:02.183Z,6.90
2018-12-07T07:54:02.125Z,7.00
2018-12-07T07:55:02.134Z,7.10
2018-12-07T07:56:02.107Z,6.90
2018-12-07T07:57:02.091Z,7.80
2018-12-07T07:58:02.107Z,6.90
2018-12-07T07:59:02.069Z,6.40
2018-12-07T08:00:02.056Z,6.90
2018-12-07T08:01:02.050Z,6.00
2018-12-07T08:02:02.035Z,6.30
2018-12-07T08:03:02.044Z,7.30
2018-12-07T08:04:02.023Z,7.50
2018-12-07T08:05:03.154Z,7.80
2018-12-07T08:06:02.007Z,8.10
2018-12-07T08:07:02.000Z,7.10
2018-12-07T08:08:02.001Z,7.80
2018-12-07T08:09:01.954Z,7.40
2018-12-07T08:10:01.969Z,7.20
2018-12-07T08:11:01.922Z,6.80
2018-12-07T08:12:01.924Z,8.00
2018-12-07T08:13:01.897Z,7.10
2018-12-07T08:14:01.942Z,7.10
2018-12-07T08:15:01.873Z,7.10
2018-12-07T08:16:01.883Z,7.30
2018-12-07T08:17:01.882Z,7.90
2018-12-07T08:18:01.901Z,7.50
2018-12-07T08:19:01.824Z,7.70
2018-12-07T08:20:01.812Z,7.70
2018-12-07T08:21:01.804Z,7.70
2018-12-07T08:22:02.839Z,7.20
2018-12-07T08:23:01.843Z,6.90
2018-12-07T08:24:01.769Z,7.30
2018-12-07T08:25:01.775Z,6.50
2018-12-07T08:26:01.773Z,6.60
2018-12-07T08:27:01.735Z,6.20
2018-12-07T08:28:01.761Z,7.10
2018-12-07T08:29:01.750Z,6.70
2018-12-07T08:30:01.711Z,5.70
2018-12-07T08:31:01.712Z,6.30
2018-12-07T08:32:01.723Z,6.00
2018-12-07T08:33:01.663Z,6.10
2018-12-07T08:34:01.667Z,6.30
2018-12-07T08:35:01.712Z,6.10
2018-12-07T08:36:01.627Z,6.30
2018-12-07T08:37:01.615Z,5.80
2018-12-07T08:38:01.607Z,6.60
2018-12-07T08:39:01.600Z,6.40
2018-12-07T08:40:01.576Z,6.50
2018-12-07T08:41:01.560Z,7.00
2018-12-07T08:42:06.723Z,6.40
2018-12-07T08:43:02.563Z,6.50
2018-12-07T08:44:01.547Z,6.50
2018-12-07T08:45:01.525Z,6.90
2018-12-07T08:46:01.524Z,6.30
2018-12-07T08:47:01.487Z,6.20
2018-12-07T08:48:01.477Z,5.70
2018-12-07T08:49:01.715Z,5.90
2018-12-07T08:50:01.533Z,6.10
2018-12-07T08:51:01.453Z,6.40
2018-12-07T08:52:01.431Z,5.80
2018-12-07T08:53:01.448Z,5.40
2018-12-07T08:54:01.417Z,5.90
2018-12-07T08:55:01.390Z,5.10
2018-12-07T08:56:01.381Z,5.10
2018-12-07T08:57:01.400Z,5.10
2018-12-07T08:58:01.352Z,4.90
2018-12-07T08:59:01.346Z,5.10
2018-12-07T09:00:01.324Z,5.50
2018-12-07T09:01:01.345Z,5.10
2018-12-07T09:02:01.317Z,4.80
2018-12-07T09:03:01.311Z,4.80
2018-12-07T09:04:01.276Z,5.40
2018-12-07T09:05:01.285Z,5.00
2018-12-07T09:06:01.285Z,5.60
2018-12-07T09:07:01.242Z,5.00
2018-12-07T09:08:01.234Z,5.10
2018-12-07T09:09:01.283Z,5.10
2018-12-07T09:10:01.212Z,5.70
2018-12-07T09:11:01.216Z,6.00
2018-12-07T09:12:01.183Z,5.30
2018-12-07T09:13:01.165Z,5.40
2018-12-07T09:14:01.166Z,5.90
2018-12-07T09:15:01.166Z,5.20
2018-12-07T09:16:01.156Z,5.20
2018-12-07T09:17:01.122Z,5.50
2018-12-07T09:18:01.106Z,4.60
2018-12-07T09:19:01.092Z,4.30
2018-12-07T09:20:01.080Z,4.80
2018-12-07T09:21:01.095Z,4.80
2018-12-07T09:22:01.091Z,4.30
2018-12-07T09:23:01.043Z,4.20
2018-12-07T09:24:01.031Z,4.00
2018-12-07T09:25:01.066Z,4.10
2018-12-07T09:26:01.022Z,4.00
2018-12-07T09:27:00.993Z,3.70
2018-12-07T09:28:00.982Z,3.70
2018-12-07T09:29:00.982Z,3.80
2018-12-07T09:30:00.999Z,3.90
2018-12-07T09:31:00.969Z,4.40
2018-12-07T09:32:00.944Z,4.00
2018-12-07T09:33:00.923Z,4.20
2018-12-07T09:34:00.927Z,3.40
2018-12-07T09:35:00.933Z,3.60
2018-12-07T09:36:00.901Z,3.30
2018-12-07T09:37:00.870Z,3.00
2018-12-07T09:38:00.877Z,3.00
2018-12-07T09:39:00.857Z,2.90
2018-12-07T09:40:00.896Z,2.80
2018-12-07T09:41:00.823Z,3.00
2018-12-07T09:42:00.813Z,3.40
2018-12-07T09:43:00.802Z,3.50
2018-12-07T09:44:00.793Z,3.00
2018-12-07T09:45:00.801Z,3.10
2018-12-07T09:46:00.801Z,3.10
2018-12-07T09:47:00.752Z,3.30
2018-12-07T09:48:00.791Z,2.40
2018-12-07T09:49:00.731Z,3.10
2018-12-07T09:50:00.719Z,2.60
2018-12-07T09:51:00.726Z,2.70
2018-12-07T09:52:00.692Z,2.50
2018-12-07T09:53:00.727Z,2.70
2018-12-07T09:54:00.670Z,2.50
2018-12-07T09:55:00.651Z,2.40
2018-12-07T09:56:00.656Z,2.60
2018-12-07T09:57:00.627Z,2.70
2018-12-07T09:58:00.639Z,2.80
2018-12-07T09:59:00.614Z,2.60
2018-12-07T10:00:00.625Z,3.00
2018-12-07T10:01:00.585Z,2.90
2018-12-07T10:02:00.568Z,3.20
2018-12-07T10:03:00.559Z,3.10
2018-12-07T10:04:00.563Z,2.90
2018-12-07T10:05:00.552Z,2.90
2018-12-07T10:06:00.518Z,2.90
2018-12-07T10:07:00.511Z,2.70
2018-12-07T10:08:00.556Z,2.30
2018-12-07T10:09:00.509Z,2.20
2018-12-07T10:10:00.518Z,2.50
2018-12-07T10:11:00.479Z,2.50
2018-12-07T10:12:00.446Z,2.30
2018-12-07T10:13:07.710Z,2.20
2018-12-07T10:14:01.429Z,2.50
2018-12-07T10:15:00.427Z,2.00
2018-12-07T10:16:00.396Z,2.20
2018-12-07T10:17:00.384Z,2.00
2018-12-07T10:18:00.381Z,2.00
2018-12-07T10:19:00.360Z,2.00
2018-12-07T10:20:00.369Z,2.10
2018-12-07T10:21:00.334Z,2.10
2018-12-07T10:22:00.320Z,2.00
2018-12-07T10:23:00.317Z,1.80
2018-12-07T10:24:00.312Z,2.00
2018-12-07T10:25:00.323Z,2.00
2018-12-07T10:26:00.272Z,2.00
2018-12-07T10:27:00.257Z,2.10
2018-12-07T10:28:00.251Z,2.00
2018-12-07T10:29:00.248Z,1.90
2018-12-07T10:30:00.249Z,2.20
2018-12-07T10:31:00.233Z,1.70
2018-12-07T10:32:00.218Z,1.50
2018-12-07T10:33:00.186Z,1.60
2018-12-07T10:34:00.177Z,1.40
2018-12-07T10:35:00.199Z,1.40
2018-12-07T10:36:00.146Z,1.50
2018-12-07T10:37:00.140Z,1.30
2018-12-07T10:38:00.152Z,1.30
2018-12-07T10:39:00.114Z,1.30
2018-12-07T10:40:00.109Z,1.50
2018-12-07T10:41:00.148Z,1.20
2018-12-07T10:42:00.079Z,1.10
2018-12-07T10:43:00.063Z,1.30
2018-12-07T10:44:00.081Z,1.40
2018-12-07T10:45:00.059Z,1.20
2018-12-07T10:46:00.023Z,1.20
2018-12-07T10:47:00.039Z,1.00
2018-12-07T10:48:00.006Z,1.10
2018-12-07T10:49:00.005Z,1.20
2018-12-07T10:50:00.019Z,1.00
2018-12-07T10:50:59.970Z,1.20
2018-12-07T10:51:59.955Z,1.00
2018-12-07T10:52:59.944Z,1.00
2018-12-07T10:53:59.931Z,1.40
2018-12-07T10:54:59.945Z,1.30
2018-12-07T10:55:59.907Z,1.20
2018-12-07T10:56:59.971Z,1.00
2018-12-07T10:57:59.877Z,0.90
2018-12-07T10:58:59.878Z,0.80
2018-12-07T10:59:59.851Z,0.80
2018-12-07T11:00:59.874Z,0.90
2018-12-07T11:01:59.837Z,0.70
2018-12-07T11:02:59.839Z,0.80
2018-12-07T11:03:59.810Z,0.70
2018-12-07T11:04:59.810Z,0.80
2018-12-07T11:05:59.816Z,0.90
2018-12-07T11:06:59.770Z,0.80
2018-12-07T11:07:59.766Z,0.90
2018-12-07T11:08:59.746Z,0.90
2018-12-07T11:09:59.728Z,0.80
2018-12-07T11:10:59.759Z,0.80
2018-12-07T11:11:59.719Z,0.80
2018-12-07T11:12:59.724Z,1.10
2018-12-07T11:13:59.681Z,0.60
2018-12-07T11:14:59.706Z,0.90
2018-12-07T11:15:59.689Z,0.90
2018-12-07T11:16:59.650Z,0.70
2018-12-07T11:17:59.647Z,0.80
2018-12-07T11:18:59.655Z,0.90
2018-12-07T11:19:59.608Z,0.70
2018-12-07T11:20:59.595Z,0.70
2018-12-07T11:21:59.584Z,0.80
2018-12-07T11:22:59.570Z,0.70
2018-12-07T11:23:59.589Z,0.90
2018-12-07T11:24:59.545Z,0.70
2018-12-07T11:25:59.535Z,0.80
2018-12-07T11:26:59.519Z,0.80
2018-12-07T11:27:59.514Z,0.80
2018-12-07T11:28:59.532Z,0.70
2018-12-07T11:29:59.485Z,0.70
2018-12-07T11:30:59.491Z,0.70
2018-12-07T11:31:59.483Z,0.60
2018-12-07T11:32:59.486Z,0.60
2018-12-07T11:33:59.457Z,0.60
2018-12-07T11:34:59.430Z,0.90
2018-12-07T11:35:59.413Z,0.60
2018-12-07T11:36:59.411Z,0.70
2018-12-07T11:37:59.421Z,0.70
2018-12-07T11:38:59.379Z,0.60
2018-12-07T11:39:59.376Z,0.70
2018-12-07T11:40:59.350Z,0.70
2018-12-07T11:41:59.338Z,0.70
2018-12-07T11:42:59.356Z,0.60
2018-12-07T11:43:59.325Z,0.90
2018-12-07T11:44:59.339Z,0.70
2018-12-07T11:45:59.289Z,0.70
2018-12-07T11:46:59.282Z,0.70
2018-12-07T11:47:59.321Z,0.90
2018-12-07T11:48:59.262Z,0.80
2018-12-07T11:49:59.249Z,0.60
2018-12-07T11:50:59.228Z,0.70
2018-12-07T11:51:59.221Z,0.60
2018-12-07T11:52:59.229Z,0.50
2018-12-07T11:53:59.193Z,0.60
2018-12-07T11:54:59.198Z,0.70
2018-12-07T11:55:59.174Z,0.80
2018-12-07T11:56:59.155Z,0.80
2018-12-07T11:57:59.182Z,0.60
2018-12-07T11:58:59.163Z,0.60
2018-12-07T11:59:59.117Z,0.60
2018-12-07T12:00:59.106Z,0.70
2018-12-07T12:01:59.104Z,0.60
2018-12-07T12:02:59.145Z,0.50
2018-12-07T12:03:59.072Z,0.40
2018-12-07T12:04:59.068Z,0.60
2018-12-07T12:05:59.046Z,0.60
2018-12-07T12:06:59.065Z,0.50
2018-12-07T12:07:59.063Z,0.40
2018-12-07T12:08:59.026Z,0.50
2018-12-07T12:09:58.998Z,0.50
2018-12-07T12:10:59.010Z,0.50
2018-12-07T12:11:58.985Z,0.30
2018-12-07T12:12:58.972Z,0.60
2018-12-07T12:13:58.954Z,0.50
2018-12-07T12:14:58.977Z,0.40
2018-12-07T12:15:58.961Z,0.40
2018-12-07T12:16:58.908Z,0.40
2018-12-07T12:17:58.926Z,0.50
2018-12-07T12:18:58.895Z,0.40
2018-12-07T12:19:58.886Z,0.60
2018-12-07T12:20:58.901Z,0.40
2018-12-07T12:21:58.855Z,0.60
2018-12-07T12:22:58.876Z,0.50
2018-12-07T12:23:58.831Z,0.40
2018-12-07T12:24:58.879Z,0.40
2018-12-07T12:25:58.800Z,0.40
2018-12-07T12:26:58.810Z,0.50
2018-12-07T12:27:58.827Z,0.50
2018-12-07T12:28:58.760Z,0.50
2018-12-07T12:29:58.749Z,0.50
2018-12-07T12:30:58.743Z,0.40
2018-12-07T12:31:58.733Z,0.50
2018-12-07T12:32:58.782Z,0.60
2018-12-07T12:33:58.717Z,0.60
2018-12-07T12:34:58.722Z,0.50
2018-12-07T12:35:58.684Z,0.50
2018-12-07T12:36:58.670Z,0.40
2018-12-07T12:37:58.694Z,0.40
2018-12-07T12:38:58.666Z,0.50
2018-12-07T12:39:58.626Z,0.50
2018-12-07T12:40:58.627Z,0.50
2018-12-07T12:41:58.607Z,0.50
2018-12-07T12:42:58.599Z,0.40
2018-12-07T12:43:58.622Z,0.50
2018-12-07T12:44:58.600Z,0.50
2018-12-07T12:45:58.565Z,0.40
2018-12-07T12:46:58.545Z,0.60
2018-12-07T12:47:58.533Z,0.80
2018-12-07T12:48:58.538Z,0.50
2018-12-07T12:49:58.536Z,0.60
2018-12-07T12:50:58.518Z,0.40
2018-12-07T12:51:58.486Z,0.50
2018-12-07T12:52:58.468Z,0.40
2018-12-07T12:53:58.463Z,0.50
2018-12-07T12:54:58.470Z,0.60
2018-12-07T12:55:58.437Z,0.50
2018-12-07T12:56:58.444Z,0.50
2018-12-07T12:57:58.434Z,0.50
2018-12-07T12:58:58.394Z,0.50
2018-12-07T12:59:59.030Z,0.50
2018-12-07T13:00:58.393Z,0.40
2018-12-07T13:01:58.380Z,0.40
2018-12-07T13:02:58.346Z,0.50
2018-12-07T13:03:58.360Z,0.60
2018-12-07T13:04:58.327Z,0.40
2018-12-07T13:05:58.309Z,0.40
2018-12-07T13:06:58.362Z,0.40
2018-12-07T13:07:58.283Z,0.60
2018-12-07T13:08:58.278Z,0.60
2018-12-07T13:09:58.297Z,0.50
2018-12-07T13:10:58.252Z,0.70
2018-12-07T13:11:58.243Z,0.50
2018-12-07T13:12:58.250Z,0.50
2018-12-07T13:13:58.836Z,0.60
2018-12-07T13:14:59.246Z,0.40
2018-12-07T13:16:27.715Z,0.70